aviador You're here:

YSSY Decoded Metar

SYDNEY in AUSTRALIA
Report Time2018-07-22 06:30:00
UTC Time2018-07-22 07:03:23
Flight Rules vfr VFR
Wind030° at 12 kt
W.Decomp.*RWY 34: 9.5 kt HW 7.4 kt RCW
RWY 07: 7.4 kt HW 9.5 kt LCW
W.Rank030° ranks 2
Current wind is above 030° avg. (11.1)
Visibility9999 m
Phenomena:N/A
Clouds:N/A
Expected CloudBase > 5,600 ft AGL from Temp-Dew spread
CeilingNone
Temp16°C (ISA +1)
Dew Point02°C (39% RH)
AAT10.0°C
QNH1020 hPa
Density Alt-7 ft
Elevation10 ft
Report Wrong Elevation
Raw Report
YSSY 220630Z 03012KT CAVOK 16/02 Q1020 NOSIG=

Extra information for YSSY:More info

Metar Taf Metar & Taf Last 4 Metars F.Rules Stats Wind Profile Meteogram Temp Stats Airport Information Weather charts Add Link Nearby VenuesMetar ALERT Operation Metar Decoded Social comments